createdAt,value
2022-10-19T00:01:24.871Z,116.45
2022-10-19T00:03:54.749Z,117.03
2022-10-19T00:06:22.709Z,141.25
2022-10-19T00:08:50.809Z,117.95
2022-10-19T00:11:18.884Z,133.70
2022-10-19T00:13:47.038Z,151.07
2022-10-19T00:16:18.071Z,133.38
2022-10-19T00:18:46.436Z,139.50
2022-10-19T00:21:19.876Z,129.90
2022-10-19T00:23:49.236Z,124.75
2022-10-19T00:26:19.574Z,136.80
2022-10-19T00:28:50.072Z,132.93
2022-10-19T00:31:19.131Z,142.02
2022-10-19T00:33:48.268Z,136.93
2022-10-19T00:36:27.667Z,241.48
2022-10-19T00:38:57.361Z,135.10
2022-10-19T00:41:29.801Z,132.15
2022-10-19T00:44:27.856Z,136.70
2022-10-19T00:47:00.750Z,120.32
2022-10-19T00:49:34.275Z,141.15
2022-10-19T00:52:18.553Z,130.63
2022-10-19T00:54:48.134Z,132.85
2022-10-19T00:57:16.558Z,121.97
2022-10-19T00:59:47.484Z,130.90
2022-10-19T01:02:16.136Z,163.23
2022-10-19T01:04:50.360Z,149.90
2022-10-19T01:07:21.786Z,149.27
2022-10-19T01:09:49.918Z,155.18
2022-10-19T01:12:30.028Z,154.20
2022-10-19T01:15:30.544Z,131.90
2022-10-19T01:18:30.200Z,139.55
2022-10-19T01:21:12.979Z,150.70
2022-10-19T01:24:12.698Z,146.82
2022-10-19T01:26:52.583Z,149.38
2022-10-19T01:29:26.759Z,143.57
2022-10-19T01:32:12.496Z,138.75
2022-10-19T01:34:56.089Z,138.10
2022-10-19T01:37:32.312Z,157.45
2022-10-19T01:40:06.574Z,144.45
2022-10-19T01:45:19.425Z,142.98
2022-10-19T01:47:54.266Z,137.60
2022-10-19T01:50:51.066Z,124.63
2022-10-19T01:53:25.075Z,140.25
2022-10-19T01:58:29.775Z,126.13
2022-10-19T02:01:04.505Z,141.27
2022-10-19T02:03:34.395Z,131.18
2022-10-19T02:06:08.762Z,140.18
2022-10-19T02:08:50.385Z,135.30
2022-10-19T02:11:19.646Z,141.32
2022-10-19T02:13:57.535Z,162.10
2022-10-19T02:16:33.312Z,139.25
2022-10-19T02:19:03.961Z,154.50
2022-10-19T02:21:33.162Z,136.85
2022-10-19T02:24:01.596Z,163.05
2022-10-19T02:26:29.692Z,167.68
2022-10-19T02:28:58.249Z,168.30
2022-10-19T02:31:28.880Z,154.45
2022-10-19T02:33:57.081Z,161.32
2022-10-19T02:36:25.239Z,142.27
2022-10-19T02:38:53.419Z,146.98
2022-10-19T02:41:36.845Z,147.77
2022-10-19T02:44:19.944Z,152.90
2022-10-19T02:46:55.237Z,150.90
2022-10-19T02:49:23.618Z,124.35
2022-10-19T02:52:01.363Z,137.98
2022-10-19T02:54:30.011Z,132.77
2022-10-19T02:56:58.387Z,131.40
2022-10-19T02:59:26.765Z,124.72
2022-10-19T03:01:54.845Z,138.32
2022-10-19T03:04:23.008Z,158.23
2022-10-19T03:06:51.059Z,130.23
2022-10-19T03:09:19.204Z,123.28
2022-10-19T03:11:50.767Z,138.90
2022-10-19T03:14:18.792Z,143.73
2022-10-19T03:16:49.436Z,154.98
2022-10-19T03:19:17.581Z,158.40
2022-10-19T03:21:45.576Z,148.48
2022-10-19T03:24:18.598Z,155.15
2022-10-19T03:26:46.760Z,132.23
2022-10-19T03:29:14.832Z,141.77
2022-10-19T03:31:45.723Z,159.98
2022-10-19T03:34:16.568Z,147.00
2022-10-19T03:36:44.789Z,154.75
2022-10-19T03:39:15.095Z,145.23
2022-10-19T03:41:43.285Z,146.48
2022-10-19T03:44:13.665Z,144.32
2022-10-19T03:46:41.733Z,151.95
2022-10-19T03:49:12.911Z,167.60
2022-10-19T03:51:40.935Z,175.98
2022-10-19T03:54:14.660Z,162.68
2022-10-19T03:56:43.352Z,147.77
2022-10-19T03:59:18.657Z,171.05
2022-10-19T04:01:47.451Z,162.10
2022-10-19T04:04:18.221Z,142.93
2022-10-19T04:06:48.890Z,148.70
2022-10-19T04:09:19.485Z,145.55
2022-10-19T04:11:48.079Z,157.50
2022-10-19T04:14:26.838Z,170.85
2022-10-19T04:17:05.364Z,159.80
2022-10-19T04:19:34.221Z,158.38
2022-10-19T04:22:02.264Z,155.35
2022-10-19T04:24:32.658Z,164.18
2022-10-19T04:27:00.794Z,148.85
2022-10-19T04:29:30.172Z,167.93
2022-10-19T04:31:59.736Z,159.02
2022-10-19T04:34:28.330Z,156.73
2022-10-19T04:36:56.357Z,162.50
2022-10-19T04:39:24.350Z,164.57
2022-10-19T04:41:52.451Z,160.70
2022-10-19T04:44:20.746Z,144.38
2022-10-19T04:46:48.833Z,140.82
2022-10-19T04:49:19.473Z,149.30
2022-10-19T04:51:48.440Z,161.48
2022-10-19T04:54:16.529Z,154.50
2022-10-19T04:56:44.581Z,151.68
2022-10-19T04:59:12.627Z,157.45
2022-10-19T05:01:44.775Z,148.35
2022-10-19T05:04:15.472Z,150.88
2022-10-19T05:06:46.368Z,151.85
2022-10-19T05:09:16.804Z,143.85
2022-10-19T05:11:44.909Z,160.18
2022-10-19T05:14:12.973Z,138.15
2022-10-19T05:16:40.983Z,146.88
2022-10-19T05:19:15.326Z,143.10
2022-10-19T05:21:45.665Z,153.95
2022-10-19T05:24:13.970Z,148.10
2022-10-19T05:26:42.024Z,153.55
2022-10-19T05:29:14.211Z,151.00
2022-10-19T05:31:42.460Z,158.38
2022-10-19T05:34:10.531Z,135.13
2022-10-19T05:36:42.933Z,156.93
2022-10-19T05:39:16.178Z,154.35
2022-10-19T05:41:45.791Z,140.75
2022-10-19T05:44:24.229Z,161.25
2022-10-19T05:46:52.924Z,155.43
2022-10-19T05:49:22.965Z,171.80
2022-10-19T05:51:51.337Z,158.60
2022-10-19T05:54:21.762Z,156.70
2022-10-19T05:56:54.163Z,152.60
2022-10-19T05:59:24.172Z,138.98
2022-10-19T06:01:54.525Z,156.60
2022-10-19T06:04:25.233Z,145.02
2022-10-19T06:06:53.337Z,140.68
2022-10-19T06:09:24.265Z,146.95
2022-10-19T06:11:52.247Z,150.27
2022-10-19T06:14:20.333Z,158.10
2022-10-19T06:16:49.313Z,145.00
2022-10-19T06:19:17.336Z,159.27
2022-10-19T06:21:46.224Z,164.75
2022-10-19T06:24:14.366Z,146.70
2022-10-19T06:26:42.447Z,157.07
2022-10-19T06:29:10.969Z,158.88
2022-10-19T06:31:39.104Z,149.93
2022-10-19T06:34:07.551Z,169.10
2022-10-19T06:36:36.113Z,150.48
2022-10-19T06:39:07.045Z,148.98
2022-10-19T06:41:35.093Z,136.45
2022-10-19T06:44:03.130Z,145.13
2022-10-19T06:46:31.191Z,156.18
2022-10-19T06:49:01.682Z,156.18
2022-10-19T06:51:33.306Z,152.00
2022-10-19T06:54:01.449Z,152.77
2022-10-19T06:56:29.580Z,153.70
2022-10-19T06:58:58.594Z,157.50
2022-10-19T07:01:26.953Z,143.65
2022-10-19T07:03:55.260Z,159.32
2022-10-19T07:06:24.053Z,148.75
2022-10-19T07:08:53.773Z,160.70
2022-10-19T07:11:24.780Z,153.95
2022-10-19T07:13:53.733Z,144.75
2022-10-19T07:16:22.321Z,140.40
2022-10-19T07:18:54.346Z,162.73
2022-10-19T07:21:25.046Z,150.95
2022-10-19T07:23:53.108Z,144.65
2022-10-19T07:26:27.032Z,162.45
2022-10-19T07:31:29.125Z,150.38
2022-10-19T07:34:04.697Z,155.18
2022-10-19T07:36:34.595Z,156.02
2022-10-19T07:39:04.135Z,148.60
2022-10-19T07:41:32.112Z,154.15
2022-10-19T07:44:00.162Z,155.30
2022-10-19T07:46:33.834Z,134.55
2022-10-19T07:49:04.441Z,151.35
2022-10-19T07:51:32.554Z,154.75
2022-10-19T07:54:00.741Z,142.43
2022-10-19T07:56:30.319Z,150.50
2022-10-19T07:59:00.236Z,149.38
2022-10-19T08:01:34.110Z,147.52
2022-10-19T08:06:50.463Z,163.52
2022-10-19T08:09:47.104Z,167.30
2022-10-19T08:12:14.821Z,166.90
2022-10-19T08:14:43.378Z,142.48
2022-10-19T08:17:14.567Z,147.00
2022-10-19T08:19:42.570Z,143.73
2022-10-19T08:22:11.248Z,159.10
2022-10-19T08:24:39.271Z,150.32
2022-10-19T08:27:07.440Z,148.95
2022-10-19T08:29:35.476Z,132.63
2022-10-19T08:32:03.486Z,150.18
2022-10-19T08:34:31.560Z,136.15
2022-10-19T08:37:14.655Z,146.68
2022-10-19T08:39:55.941Z,153.90
2022-10-19T08:42:39.141Z,153.82
2022-10-19T08:45:37.751Z,125.50
2022-10-19T08:48:18.993Z,150.77
2022-10-19T08:50:47.926Z,167.55
2022-10-19T08:53:38.777Z,137.85
2022-10-19T08:56:45.806Z,156.48
2022-10-19T08:59:33.093Z,161.65
2022-10-19T09:02:24.910Z,158.55
2022-10-19T09:05:04.054Z,156.10
2022-10-19T09:07:39.106Z,157.50
2022-10-19T09:10:15.925Z,144.45
2022-10-19T09:12:53.936Z,142.38
2022-10-19T09:15:41.305Z,139.02
2022-10-19T09:18:25.056Z,139.70
2022-10-19T09:21:45.964Z,142.35
2022-10-19T09:24:43.062Z,140.88
2022-10-19T09:27:24.532Z,136.10
2022-10-19T09:29:58.265Z,144.93
2022-10-19T09:32:36.888Z,132.23
2022-10-19T09:35:27.206Z,149.35
2022-10-19T09:37:56.569Z,154.20
2022-10-19T09:40:29.576Z,157.27
2022-10-19T09:42:57.904Z,168.30
2022-10-19T09:45:48.481Z,159.93
2022-10-19T09:48:28.963Z,141.00
2022-10-19T09:51:04.003Z,141.73
2022-10-19T09:53:32.097Z,144.23
2022-10-19T09:56:06.344Z,141.88
2022-10-19T09:58:35.402Z,138.80
2022-10-19T10:01:04.370Z,156.85
2022-10-19T10:03:33.808Z,165.75
2022-10-19T10:06:15.012Z,150.70
2022-10-19T10:08:54.818Z,153.15
2022-10-19T10:11:29.764Z,151.30
2022-10-19T10:14:00.419Z,157.05
2022-10-19T10:16:30.999Z,135.52
2022-10-19T10:19:12.734Z,142.13
2022-10-19T10:21:52.617Z,142.93
2022-10-19T10:24:24.967Z,146.43
2022-10-19T10:30:21.511Z,148.88
2022-10-19T10:32:53.583Z,147.07
2022-10-19T10:35:26.824Z,148.00
2022-10-19T10:38:17.277Z,144.75
2022-10-19T10:41:16.270Z,145.05
2022-10-19T10:43:57.579Z,147.52
2022-10-19T10:46:30.596Z,151.25
2022-10-19T10:49:07.706Z,150.70
2022-10-19T10:51:39.254Z,154.73
2022-10-19T10:54:11.065Z,154.07
2022-10-19T10:56:39.364Z,143.82
2022-10-19T10:59:25.062Z,158.10
2022-10-19T11:02:16.780Z,134.73
2022-10-19T11:04:52.438Z,146.50
2022-10-19T11:07:26.770Z,136.30
2022-10-19T11:10:08.478Z,138.27
2022-10-19T11:12:43.441Z,134.52
2022-10-19T11:15:21.009Z,139.30
2022-10-19T11:18:09.150Z,163.25
2022-10-19T11:20:43.440Z,148.55
2022-10-19T11:23:16.769Z,151.45
2022-10-19T11:25:55.756Z,149.13
2022-10-19T11:28:33.712Z,148.55
2022-10-19T11:31:33.795Z,142.18
2022-10-19T11:34:16.191Z,146.80
2022-10-19T11:37:22.598Z,147.30
2022-10-19T11:39:56.463Z,139.27
2022-10-19T11:42:24.457Z,157.10
2022-10-19T11:45:04.995Z,156.50
2022-10-19T11:48:06.857Z,160.43
2022-10-19T11:50:54.162Z,141.68
2022-10-19T11:53:42.905Z,153.60
2022-10-19T11:56:35.052Z,172.73
2022-10-19T11:59:20.483Z,159.40
2022-10-19T12:01:48.446Z,160.70
2022-10-19T12:04:33.307Z,1999.90
2022-10-19T12:07:18.967Z,1757.43
2022-10-19T12:09:52.824Z,185.55
2022-10-19T12:15:13.586Z,118.17
2022-10-19T12:17:47.806Z,168.35
2022-10-19T12:20:39.732Z,152.75
2022-10-19T12:23:22.761Z,983.42
2022-10-19T12:25:51.686Z,1999.90
2022-10-19T12:28:28.423Z,1999.90
2022-10-19T12:30:57.552Z,164.45
2022-10-19T12:33:37.926Z,159.40
2022-10-19T12:36:31.253Z,164.52
2022-10-19T12:39:49.745Z,144.02
2022-10-19T12:42:40.888Z,171.25
2022-10-19T12:45:29.832Z,157.20
2022-10-19T12:48:10.089Z,163.43
2022-10-19T12:50:50.107Z,157.50
2022-10-19T12:56:16.105Z,153.57
2022-10-19T12:58:56.164Z,151.48
2022-10-19T13:01:29.029Z,145.15
2022-10-19T13:04:16.647Z,146.90
2022-10-19T13:06:49.944Z,167.00
2022-10-19T13:09:23.519Z,172.95
2022-10-19T13:12:19.594Z,168.05
2022-10-19T13:15:04.567Z,151.85
2022-10-19T13:17:35.573Z,160.68
2022-10-19T13:20:15.654Z,165.52
2022-10-19T13:22:44.823Z,159.13
2022-10-19T13:25:23.960Z,161.77
2022-10-19T13:27:53.504Z,163.80
2022-10-19T13:31:04.840Z,153.95
2022-10-19T13:33:45.869Z,171.90
2022-10-19T13:36:14.301Z,167.55
2022-10-19T13:38:52.402Z,160.20
2022-10-19T13:41:35.707Z,198.13
2022-10-19T13:44:19.113Z,147.98
2022-10-19T13:47:26.341Z,126.90
2022-10-19T13:50:05.781Z,170.43
2022-10-19T13:52:34.004Z,162.35
2022-10-19T13:55:02.126Z,169.57
2022-10-19T13:57:46.145Z,169.50
2022-10-19T14:00:26.006Z,157.52
2022-10-19T14:03:01.494Z,148.38
2022-10-19T14:05:57.476Z,143.35
2022-10-19T14:08:45.119Z,156.38
2022-10-19T14:11:16.858Z,173.43
2022-10-19T14:13:45.510Z,169.35
2022-10-19T14:16:23.731Z,167.25
2022-10-19T14:18:58.462Z,169.98
2022-10-19T14:21:35.395Z,162.93
2022-10-19T14:24:04.095Z,162.13
2022-10-19T14:26:32.237Z,166.00
2022-10-19T14:29:01.316Z,152.73
2022-10-19T14:31:37.124Z,165.82
2022-10-19T14:34:08.793Z,147.43
2022-10-19T14:36:44.709Z,163.82
2022-10-19T14:39:34.997Z,166.40
2022-10-19T14:42:10.657Z,634.88
2022-10-19T14:44:45.955Z,880.92
2022-10-19T14:47:26.770Z,206.90
2022-10-19T14:49:54.884Z,192.60
2022-10-19T14:52:29.118Z,589.15
2022-10-19T14:54:57.867Z,168.85
2022-10-19T14:57:35.931Z,163.82
2022-10-19T15:00:07.473Z,158.73
2022-10-19T15:02:46.005Z,168.35
2022-10-19T15:05:22.686Z,149.75
2022-10-19T15:07:51.504Z,1142.07
2022-10-19T15:10:28.632Z,1999.90
2022-10-19T15:13:03.862Z,1999.90
2022-10-19T15:15:34.642Z,188.40
2022-10-19T15:18:04.114Z,179.88
2022-10-19T15:20:49.015Z,180.20
2022-10-19T15:23:40.763Z,168.75
2022-10-19T15:26:22.143Z,168.80
2022-10-19T15:28:51.049Z,165.88
2022-10-19T15:31:22.069Z,157.07
2022-10-19T15:33:52.450Z,162.13
2022-10-19T15:36:22.396Z,154.20
2022-10-19T15:39:11.369Z,160.63
2022-10-19T15:41:52.772Z,155.00
2022-10-19T15:44:43.880Z,151.13
2022-10-19T15:47:17.321Z,157.05
2022-10-19T15:49:45.335Z,150.35
2022-10-19T15:52:30.691Z,148.30
2022-10-19T15:55:00.442Z,161.52
2022-10-19T15:57:35.554Z,164.18
2022-10-19T16:00:14.615Z,167.27
2022-10-19T16:02:42.739Z,148.27
2022-10-19T16:05:10.997Z,157.93
2022-10-19T16:07:40.907Z,141.60
2022-10-19T16:10:15.654Z,144.70
2022-10-19T16:12:46.051Z,143.13
2022-10-19T16:15:18.581Z,142.60
2022-10-19T16:17:53.838Z,145.07
2022-10-19T16:20:22.967Z,152.75
2022-10-19T16:22:51.660Z,170.35
2022-10-19T16:25:23.169Z,143.73
2022-10-19T16:27:51.271Z,155.88
2022-10-19T16:30:19.565Z,155.10
2022-10-19T16:32:53.081Z,146.10
2022-10-19T16:35:22.140Z,144.43
2022-10-19T16:37:53.092Z,138.00
2022-10-19T16:40:21.155Z,142.60
2022-10-19T16:42:51.948Z,164.38
2022-10-19T16:45:22.295Z,157.82
2022-10-19T16:47:53.262Z,145.15
2022-10-19T16:50:21.711Z,142.85
2022-10-19T16:53:03.941Z,153.02
2022-10-19T16:55:32.012Z,143.85
2022-10-19T16:58:00.013Z,145.93
2022-10-19T17:00:28.073Z,147.07
2022-10-19T17:02:56.779Z,157.80
2022-10-19T17:05:24.929Z,135.07
2022-10-19T17:07:55.487Z,148.85
2022-10-19T17:10:23.585Z,131.32
2022-10-19T17:12:51.640Z,139.00
2022-10-19T17:15:47.685Z,142.18
2022-10-19T17:18:07.860Z,144.82
2022-10-19T17:20:36.012Z,138.80
2022-10-19T17:23:04.030Z,142.85
2022-10-19T17:25:34.640Z,167.68
2022-10-19T17:28:04.680Z,171.35
2022-10-19T17:30:35.163Z,140.07
2022-10-19T17:33:03.227Z,147.23
2022-10-19T17:35:35.249Z,146.30
2022-10-19T17:38:05.583Z,133.63
2022-10-19T17:40:34.339Z,145.45
2022-10-19T17:43:04.426Z,129.82
2022-10-19T17:45:35.365Z,130.77
2022-10-19T17:48:03.530Z,132.82
2022-10-19T17:50:31.680Z,134.35
2022-10-19T17:52:59.739Z,143.65
2022-10-19T17:55:27.823Z,142.35
2022-10-19T17:57:59.175Z,139.48
2022-10-19T18:00:27.208Z,132.75
2022-10-19T18:02:55.258Z,132.93
2022-10-19T18:05:23.361Z,139.68
2022-10-19T18:07:56.446Z,141.85
2022-10-19T18:10:24.595Z,151.73
2022-10-19T18:12:52.598Z,149.95
2022-10-19T18:15:20.740Z,148.30
2022-10-19T18:17:48.835Z,134.00
2022-10-19T18:20:17.131Z,139.95
2022-10-19T18:22:45.176Z,149.55
2022-10-19T18:25:13.335Z,132.20
2022-10-19T18:27:44.012Z,133.55
2022-10-19T18:30:12.409Z,140.48
2022-10-19T18:32:42.841Z,144.77
2022-10-19T18:35:10.907Z,146.13
2022-10-19T18:37:38.942Z,136.98
2022-10-19T18:40:07.657Z,132.77
2022-10-19T18:42:35.929Z,144.25
2022-10-19T18:45:04.816Z,132.18
2022-10-19T18:47:33.112Z,137.10
2022-10-19T18:50:01.188Z,137.18
2022-10-19T18:52:29.198Z,133.35
2022-10-19T18:54:58.152Z,136.88
2022-10-19T18:57:30.837Z,127.07
2022-10-19T18:59:59.697Z,139.40
2022-10-19T19:02:42.387Z,125.40
2022-10-19T19:05:20.405Z,136.57
2022-10-19T19:07:52.253Z,135.60
2022-10-19T19:10:21.402Z,142.07
2022-10-19T19:12:53.504Z,149.48
2022-10-19T19:15:23.374Z,128.30
2022-10-19T19:17:55.631Z,136.57
2022-10-19T19:20:24.638Z,140.05
2022-10-19T19:22:56.475Z,135.05
2022-10-19T19:25:25.715Z,146.40
2022-10-19T19:27:59.188Z,131.18
2022-10-19T19:30:28.354Z,140.82
2022-10-19T19:33:02.458Z,144.02
2022-10-19T19:37:58.794Z,138.10
2022-10-19T19:40:28.864Z,133.48
2022-10-19T19:42:57.763Z,137.90
2022-10-19T19:45:33.112Z,147.80
2022-10-19T19:48:06.012Z,136.48
2022-10-19T19:50:48.374Z,140.88
2022-10-19T19:53:19.404Z,144.05
2022-10-19T19:55:53.667Z,137.52
2022-10-19T19:58:22.754Z,148.45
2022-10-19T20:00:55.032Z,146.60
2022-10-19T20:03:24.114Z,133.98
2022-10-19T20:05:59.550Z,149.30
2022-10-19T20:08:28.473Z,137.25
2022-10-19T20:11:06.804Z,137.68
2022-10-19T20:13:37.602Z,136.52
2022-10-19T20:16:15.217Z,150.60
2022-10-19T20:18:52.033Z,149.18
2022-10-19T20:21:21.485Z,150.60
2022-10-19T20:23:50.971Z,132.07
2022-10-19T20:26:26.085Z,135.38
2022-10-19T20:29:00.280Z,134.35
2022-10-19T20:31:32.566Z,135.10
2022-10-19T20:34:02.282Z,131.38
2022-10-19T20:36:33.382Z,136.32
2022-10-19T20:39:02.586Z,131.95
2022-10-19T20:41:34.353Z,134.43
2022-10-19T20:44:06.414Z,131.88
2022-10-19T20:46:38.783Z,140.30
2022-10-19T20:49:07.917Z,136.27
2022-10-19T20:51:40.921Z,144.77
2022-10-19T20:54:12.817Z,130.20
2022-10-19T20:56:44.962Z,128.02
2022-10-19T20:59:20.104Z,130.85
2022-10-19T21:01:53.414Z,119.68
2022-10-19T21:04:26.523Z,140.10
2022-10-19T21:07:00.302Z,119.65
2022-10-19T21:09:34.512Z,117.32
2022-10-19T21:12:06.272Z,126.88
2022-10-19T21:14:41.734Z,129.93
2022-10-19T21:17:10.854Z,124.93
2022-10-19T21:19:42.627Z,135.05
2022-10-19T21:22:12.844Z,123.82
2022-10-19T21:24:46.532Z,127.95
2022-10-19T21:27:15.998Z,126.75
2022-10-19T21:29:44.632Z,124.07
2022-10-19T21:32:14.462Z,125.45
2022-10-19T21:34:46.557Z,123.18
2022-10-19T21:37:18.601Z,119.28
2022-10-19T21:39:50.322Z,122.53
2022-10-19T21:42:18.929Z,123.15
2022-10-19T21:44:48.026Z,118.75
2022-10-19T21:47:17.160Z,118.05
2022-10-19T21:49:46.326Z,120.20
2022-10-19T21:52:20.830Z,125.47
2022-10-19T21:54:52.512Z,108.30
2022-10-19T21:57:24.503Z,110.50
2022-10-19T21:59:53.503Z,112.55
2022-10-19T22:02:24.291Z,104.05
2022-10-19T22:04:55.999Z,104.28
2022-10-19T22:07:35.449Z,110.10
2022-10-19T22:10:07.835Z,109.53
2022-10-19T22:12:40.675Z,110.80
2022-10-19T22:15:13.097Z,107.15
2022-10-19T22:17:42.331Z,111.63
2022-10-19T22:20:15.946Z,108.13
2022-10-19T22:22:49.174Z,111.35
2022-10-19T22:25:21.502Z,110.53
2022-10-19T22:27:56.229Z,132.60
2022-10-19T22:30:27.897Z,110.72
2022-10-19T22:32:59.960Z,104.47
2022-10-19T22:35:29.049Z,113.40
2022-10-19T22:37:59.708Z,110.55
2022-10-19T22:40:29.745Z,110.03
2022-10-19T22:43:13.687Z,129.70
2022-10-19T22:45:44.214Z,111.40
2022-10-19T22:48:12.799Z,124.55
2022-10-19T22:50:42.296Z,126.13
2022-10-19T22:53:11.023Z,114.85
2022-10-19T22:55:42.618Z,112.70
2022-10-19T23:00:42.574Z,137.27
2022-10-19T23:03:16.340Z,110.45
2022-10-19T23:05:45.028Z,105.80
2022-10-19T23:08:18.925Z,115.15
2022-10-19T23:10:50.212Z,118.80
2022-10-19T23:13:19.104Z,107.32
2022-10-19T23:15:50.993Z,121.80
2022-10-19T23:18:22.666Z,118.65
2022-10-19T23:20:59.282Z,110.45
2022-10-19T23:23:28.132Z,118.97
2022-10-19T23:26:01.402Z,119.03
2022-10-19T23:28:35.266Z,133.27
2022-10-19T23:31:32.176Z,107.70
2022-10-19T23:34:01.239Z,114.38
2022-10-19T23:36:31.221Z,125.25
2022-10-19T23:39:01.309Z,126.88
2022-10-19T23:41:37.564Z,110.63
2022-10-19T23:44:11.059Z,115.93
2022-10-19T23:46:42.518Z,126.40
2022-10-19T23:49:14.479Z,112.90
2022-10-19T23:51:45.914Z,109.90
2022-10-19T23:54:18.597Z,115.18
2022-10-19T23:56:47.702Z,118.90
2022-10-19T23:59:16.279Z,117.28
